Time;durP1;ratioP1;P1;durP2;ratioP2;P2;SDS_P1;SDS_P2;PMS_P1;PMS_P2;Temp;Humidity;BMP_temperature;BMP_pressure;BME280_temperature;BME280_humidity;BME280_pressure;Samples;Min_cycle;Max_cycle;Signal;HPM_P1;HPM_P2
2023/09/21 00:02:57;;;;;;;2.60;1.70;;;;;;;18.45;61.17;99200.03;10437405;28;20900;-75
2023/09/21 00:08:00;;;;;;;4.15;2.08;;;;;;;18.48;60.99;99204.22;10437058;28;20052;-75
2023/09/21 00:13:04;;;;;;;3.40;1.95;;;;;;;18.48;61.03;99201.50;10436033;28;20415;-75
2023/09/21 00:18:09;;;;;;;2.40;1.83;;;;;;;18.36;61.43;99204.84;10432466;28;20209;-74
2023/09/21 00:23:13;;;;;;;2.10;1.80;;;;;;;18.29;61.70;99194.97;10434005;28;20078;-75
2023/09/21 00:28:19;;;;;;;3.05;1.52;;;;;;;18.26;61.71;99188.06;10435151;28;20044;-75
2023/09/21 00:33:23;;;;;;;4.00;1.88;;;;;;;18.23;61.79;99182.19;10437045;28;21142;-74
2023/09/21 00:38:31;;;;;;;2.90;1.70;;;;;;;18.20;61.95;99179.88;10442407;28;20511;-74
2023/09/21 00:43:34;;;;;;;5.93;1.90;;;;;;;18.21;61.80;99168.84;10439990;28;20048;-74
2023/09/21 00:48:42;;;;;;;3.53;2.10;;;;;;;18.20;61.88;99167.13;10441870;28;20107;-74
2023/09/21 00:53:48;;;;;;;2.20;1.90;;;;;;;18.04;61.85;99157.44;10445989;28;20819;-74
2023/09/21 00:58:53;;;;;;;3.40;1.85;;;;;;;18.29;61.24;99152.34;10438743;28;20053;-75
2023/09/21 01:04:01;;;;;;;2.05;1.73;;;;;;;18.22;61.16;99151.47;10436079;28;20075;-74
2023/09/21 01:09:06;;;;;;;3.95;1.75;;;;;;;18.30;60.41;99132.25;10440874;28;21073;-74
2023/09/21 01:14:09;;;;;;;2.80;1.90;;;;;;;18.30;60.38;99128.72;10438406;28;20053;-74
2023/09/21 01:19:14;;;;;;;2.42;1.60;;;;;;;18.31;60.29;99127.66;10443590;28;20102;-74
2023/09/21 01:24:22;;;;;;;3.35;1.55;;;;;;;18.39;59.79;99127.47;10439836;28;20135;-74
2023/09/21 01:29:25;;;;;;;2.70;1.65;;;;;;;18.38;59.69;99114.09;10441129;28;20048;-74
2023/09/21 01:34:28;;;;;;;2.30;1.58;;;;;;;18.36;59.87;99115.13;10441471;28;20044;-74
2023/09/21 01:39:32;;;;;;;2.33;2.10;;;;;;;18.32;59.75;99105.72;10437769;28;20060;-74
2023/09/21 01:44:35;;;;;;;3.70;1.70;;;;;;;18.32;59.61;99100.28;10441823;28;20136;-74
2023/09/21 01:49:38;;;;;;;3.13;1.55;;;;;;;18.27;59.84;99094.63;10449631;28;20076;-75
2023/09/21 01:54:44;;;;;;;1.77;1.58;;;;;;;18.16;59.66;99081.66;10438332;28;20051;-75
2023/09/21 01:59:47;;;;;;;3.45;1.67;;;;;;;18.22;59.50;99078.09;10440594;28;20500;-74
2023/09/21 02:04:50;;;;;;;2.20;1.55;;;;;;;18.17;59.42;99072.44;10438468;28;20100;-74
2023/09/21 02:09:55;;;;;;;2.70;1.77;;;;;;;18.13;59.38;99060.31;10441588;28;20051;-74
2023/09/21 02:14:59;;;;;;;4.78;1.45;;;;;;;18.02;59.14;99050.88;10436411;28;20046;-74
2023/09/21 02:20:03;;;;;;;1.58;1.48;;;;;;;18.19;58.82;99064.91;10437113;28;20084;-74
2023/09/21 02:25:09;;;;;;;2.80;1.67;;;;;;;18.27;58.24;99050.31;10435718;28;20049;-74
2023/09/21 02:30:13;;;;;;;4.15;2.20;;;;;;;18.26;58.21;99057.59;10434028;28;20195;-74
2023/09/21 02:35:18;;;;;;;2.22;1.45;;;;;;;18.26;57.71;99046.72;10437278;28;20049;-74
2023/09/21 02:40:25;;;;;;;2.15;1.70;;;;;;;18.36;57.35;99049.88;10440815;28;20155;-74
2023/09/21 02:45:29;;;;;;;2.78;1.95;;;;;;;18.27;57.45;99037.56;10441456;28;20154;-74
2023/09/21 02:50:32;;;;;;;3.45;1.70;;;;;;;18.39;56.75;99026.91;10435514;28;20040;-74
2023/09/21 02:55:39;;;;;;;2.40;1.63;;;;;;;18.38;56.63;99027.13;10437557;28;20648;-74
2023/09/21 03:00:44;;;;;;;2.90;1.75;;;;;;;18.23;57.71;99028.13;10435469;28;20049;-74
2023/09/21 03:05:49;;;;;;;2.15;1.75;;;;;;;17.62;61.44;99022.72;10433312;28;20105;-74
2023/09/21 03:10:55;;;;;;;2.20;1.70;;;;;;;17.19;63.54;99012.91;10428225;28;20763;-74
2023/09/21 03:15:59;;;;;;;3.50;2.08;;;;;;;16.98;64.34;99013.00;10430486;28;20082;-74
2023/09/21 03:21:09;;;;;;;3.17;2.28;;;;;;;16.69;65.79;99008.63;10427076;28;20052;-74
2023/09/21 03:26:15;;;;;;;4.15;2.20;;;;;;;16.65;65.89;99001.91;10427898;28;20091;-74
2023/09/21 03:31:18;;;;;;;2.80;1.67;;;;;;;16.56;66.08;98999.38;10427054;28;20067;-74
2023/09/21 03:36:22;;;;;;;4.03;2.38;;;;;;;16.52;66.17;99000.78;10430207;28;20037;-74
2023/09/21 03:41:27;;;;;;;3.45;2.05;;;;;;;16.45;66.79;99001.75;10432068;28;20049;-74
2023/09/21 03:46:30;;;;;;;3.17;2.03;;;;;;;16.36;66.78;98993.75;10439294;28;20090;-74
2023/09/21 03:51:33;;;;;;;5.28;2.22;;;;;;;16.34;67.30;98984.97;10436620;28;20672;-74
2023/09/21 03:56:39;;;;;;;3.55;2.50;;;;;;;16.22;67.67;98983.00;10429743;28;20253;-74
2023/09/21 04:01:43;;;;;;;2.17;1.80;;;;;;;16.22;67.76;98974.84;10427338;28;20052;-74
2023/09/21 04:06:46;;;;;;;3.45;2.53;;;;;;;16.12;68.13;98973.31;10427800;28;20052;-74
2023/09/21 04:11:50;;;;;;;4.57;2.45;;;;;;;16.09;68.02;98964.72;10427715;28;20036;-74
2023/09/21 04:16:55;;;;;;;3.58;2.53;;;;;;;16.08;68.18;98955.78;10423210;28;20674;-74
2023/09/21 04:21:58;;;;;;;4.03;2.47;;;;;;;16.04;68.38;98951.75;10425262;28;20068;-74
2023/09/21 04:27:03;;;;;;;5.20;2.30;;;;;;;16.06;68.20;98954.28;10423094;28;20048;-74
2023/09/21 04:32:07;;;;;;;4.13;2.20;;;;;;;16.06;67.98;98941.59;10420776;28;20044;-74
2023/09/21 04:37:13;;;;;;;2.33;2.03;;;;;;;16.03;68.20;98944.69;10423002;28;20158;-74
2023/09/21 04:42:18;;;;;;;4.95;2.00;;;;;;;15.97;68.12;98953.59;10424445;28;20064;-75
2023/09/21 04:47:21;;;;;;;3.97;2.45;;;;;;;15.90;69.00;98948.09;10419560;28;20160;-74
2023/09/21 04:52:25;;;;;;;4.00;2.60;;;;;;;15.72;69.60;98944.19;10425883;28;20720;-74
2023/09/21 04:57:30;;;;;;;5.65;2.15;;;;;;;15.55;70.63;98941.72;10427930;28;20044;-74
2023/09/21 05:02:34;;;;;;;4.68;2.45;;;;;;;15.50;71.25;98938.75;10438054;28;20182;-74
2023/09/21 05:07:37;;;;;;;3.92;2.30;;;;;;;15.46;71.94;98935.56;10433953;28;20049;-74
2023/09/21 05:12:42;;;;;;;3.47;3.00;;;;;;;15.46;71.68;98932.03;10433780;28;20508;-74
2023/09/21 05:17:45;;;;;;;7.85;2.80;;;;;;;15.46;71.88;98921.22;10436856;28;20091;-74
2023/09/21 05:22:48;;;;;;;7.30;3.05;;;;;;;15.48;71.83;98921.88;10442161;28;20049;-74
2023/09/21 05:27:52;;;;;;;5.30;3.83;;;;;;;15.46;72.09;98926.63;10445590;28;20052;-74
2023/09/21 05:32:56;;;;;;;3.28;2.67;;;;;;;15.45;71.89;98930.38;10445215;28;20048;-74
2023/09/21 05:37:59;;;;;;;4.70;2.92;;;;;;;15.63;71.51;98914.53;10447154;28;20072;-74
2023/09/21 05:43:04;;;;;;;4.05;2.70;;;;;;;15.70;71.02;98920.00;10441001;28;20047;-74
2023/09/21 05:48:14;;;;;;;6.35;3.00;;;;;;;15.83;70.17;98922.03;10457485;28;20044;-74
2023/09/21 05:53:18;;;;;;;7.35;2.67;;;;;;;16.06;69.11;98911.78;10448952;28;20052;-74
2023/09/21 05:58:22;;;;;;;7.60;2.60;;;;;;;16.20;68.32;98915.44;10448592;28;20064;-74
2023/09/21 06:03:26;;;;;;;6.53;2.97;;;;;;;16.37;67.90;98902.47;10444331;28;20072;-74
2023/09/21 06:08:29;;;;;;;3.83;2.50;;;;;;;16.57;67.22;98908.03;10441562;28;20048;-74
2023/09/21 06:13:33;;;;;;;4.13;2.35;;;;;;;16.76;67.37;98901.91;10442913;28;20049;-74
2023/09/21 06:18:36;;;;;;;4.95;2.70;;;;;;;17.13;65.93;98902.50;10447946;28;20503;-74
2023/09/21 06:23:39;;;;;;;6.00;2.95;;;;;;;17.23;65.07;98902.97;10447915;28;20106;-74
2023/09/21 06:28:44;;;;;;;16.50;3.70;;;;;;;17.54;64.25;98895.31;10442247;28;20076;-74
2023/09/21 06:33:47;;;;;;;4.57;2.83;;;;;;;17.83;63.37;98891.41;10462157;28;20059;-75
2023/09/21 06:38:51;;;;;;;3.92;2.38;;;;;;;18.29;61.96;98882.41;10451438;28;20049;-74
2023/09/21 06:43:55;;;;;;;3.33;2.25;;;;;;;18.28;61.99;98884.31;10438667;28;20059;-74
2023/09/21 06:49:01;;;;;;;3.42;2.15;;;;;;;18.53;60.86;98879.03;10445895;28;20122;-75
2023/09/21 06:54:12;;;;;;;5.07;2.85;;;;;;;18.96;59.97;98875.78;10440499;28;20048;-74
2023/09/21 06:59:17;;;;;;;4.40;2.30;;;;;;;19.34;58.53;98866.81;10438978;28;20055;-74
2023/09/21 07:04:21;;;;;;;4.82;2.28;;;;;;;19.82;58.67;98863.59;10440462;28;20044;-74
2023/09/21 07:09:24;;;;;;;8.68;2.42;;;;;;;20.29;58.22;98869.47;10445662;28;20465;-74
2023/09/21 07:14:30;;;;;;;4.15;2.33;;;;;;;20.27;56.69;98866.13;10447378;28;20090;-74
2023/09/21 07:19:34;;;;;;;2.88;2.17;;;;;;;20.49;54.50;98882.94;10446108;28;20051;-75
2023/09/21 07:24:37;;;;;;;3.75;2.20;;;;;;;20.99;55.36;98873.78;10448656;28;20049;-74
2023/09/21 07:29:41;;;;;;;7.57;2.30;;;;;;;21.08;53.33;98877.06;10441163;28;20708;-75
2023/09/21 07:34:44;;;;;;;6.40;2.72;;;;;;;20.86;54.49;98874.75;10444986;28;20436;-75
2023/09/21 07:39:47;;;;;;;6.72;2.38;;;;;;;20.65;55.13;98869.75;10442236;28;20049;-74
2023/09/21 07:44:51;;;;;;;3.65;2.55;;;;;;;21.08;54.20;98866.97;10446866;28;20052;-75
2023/09/21 07:49:55;;;;;;;5.47;2.30;;;;;;;21.43;54.32;98867.13;10452656;28;20053;-75
2023/09/21 07:55:02;;;;;;;7.85;2.70;;;;;;;21.42;53.63;98861.91;10435902;28;20053;-75
2023/09/21 08:00:09;;;;;;;8.05;2.95;;;;;;;21.52;53.88;98864.88;10442565;28;20055;-75
2023/09/21 08:05:12;;;;;;;3.65;2.03;;;;;;;22.19;53.26;98861.97;10433997;28;20166;-74
2023/09/21 08:10:16;;;;;;;3.03;2.30;;;;;;;22.60;52.61;98857.47;10435453;28;20045;-75
2023/09/21 08:15:21;;;;;;;3.63;1.70;;;;;;;21.97;51.84;98850.78;10443353;28;20052;-75
2023/09/21 08:20:24;;;;;;;5.55;2.35;;;;;;;22.36;50.08;98851.13;10448422;28;20839;-75
2023/09/21 08:25:27;;;;;;;3.15;1.88;;;;;;;21.91;51.35;98848.97;10435524;28;20496;-74
2023/09/21 08:30:33;;;;;;;2.75;2.13;;;;;;;21.66;51.93;98862.78;10445643;28;20187;-75
2023/09/21 08:35:43;;;;;;;4.68;2.28;;;;;;;22.22;51.95;98858.75;10441386;28;20535;-77
2023/09/21 08:40:51;;;;;;;4.28;2.22;;;;;;;22.55;50.74;98854.59;10436213;28;20122;-76
2023/09/21 08:45:56;;;;;;;5.72;2.00;;;;;;;22.96;49.94;98833.56;10436529;28;20251;-75
2023/09/21 08:51:00;;;;;;;2.03;1.52;;;;;;;22.95;49.22;98848.31;10429257;28;20229;-75
2023/09/21 08:56:05;;;;;;;5.22;1.80;;;;;;;23.03;49.54;98842.47;10437890;28;20048;-74
2023/09/21 09:01:09;;;;;;;2.72;1.88;;;;;;;23.07;49.90;98859.25;10443998;28;20057;-75
2023/09/21 09:06:12;;;;;;;3.95;1.60;;;;;;;23.74;48.41;98845.72;10441806;28;20055;-75
2023/09/21 09:11:45;;;;;;;5.25;2.38;;;;;;;23.98;48.32;98845.63;10449420;28;20547;-75
2023/09/21 09:16:50;;;;;;;3.88;1.75;;;;;;;23.93;48.16;98846.34;10402036;28;20135;-75
2023/09/21 09:21:54;;;;;;;7.63;2.15;;;;;;;23.36;49.63;98849.16;10455277;28;20171;-75
2023/09/21 09:26:57;;;;;;;2.95;1.60;;;;;;;23.81;49.18;98842.88;10450196;28;20056;-76
2023/09/21 09:32:05;;;;;;;1.77;1.60;;;;;;;24.12;48.12;98844.19;10453635;28;20098;-75
2023/09/21 09:37:12;;;;;;;5.78;2.20;;;;;;;24.91;47.22;98843.13;10452808;28;20550;-76
2023/09/21 09:42:16;;;;;;;2.63;1.58;;;;;;;24.71;47.67;98849.16;10450663;28;20044;-75
2023/09/21 09:47:26;;;;;;;4.03;1.92;;;;;;;25.38;47.41;98835.16;10461642;28;20178;-75
2023/09/21 09:52:31;;;;;;;3.70;1.73;;;;;;;25.28;46.41;98828.72;10452461;28;20250;-75
2023/09/21 09:57:35;;;;;;;4.05;2.00;;;;;;;25.23;46.40;98835.00;10450847;28;20186;-76
2023/09/21 10:02:47;;;;;;;2.42;1.60;;;;;;;25.60;46.29;98831.53;10450742;28;20071;-76
2023/09/21 10:07:51;;;;;;;;;;;;;;;25.35;46.38;98815.63;10434751;28;20059;-75
2023/09/21 10:12:56;;;;;;;2.75;2.03;;;;;;;25.03;47.16;98807.31;10451792;28;19925;-76
2023/09/21 10:18:01;;;;;;;5.38;2.08;;;;;;;24.82;47.78;98812.53;10448070;28;20040;-76
2023/09/21 10:23:09;;;;;;;4.22;2.10;;;;;;;25.17;46.85;98811.31;10451261;28;20049;-75
2023/09/21 10:28:39;;;;;;;3.92;2.40;;;;;;;24.62;47.78;98806.78;10436263;28;20051;-75
2023/09/21 10:34:05;;;;;;;4.40;2.10;;;;;;;25.45;46.82;98806.63;10432076;28;20054;-74
2023/09/21 10:39:24;;;;;;;3.00;1.70;;;;;;;24.61;47.45;98800.47;10433531;28;20308;-74
2023/09/21 10:44:56;;;;;;;2.22;1.55;;;;;;;24.63;48.51;98809.28;10433209;28;20059;-74
2023/09/21 10:50:03;;;;;;;3.42;1.65;;;;;;;23.49;51.04;98821.44;10436746;28;20664;-74
2023/09/21 10:55:08;;;;;;;4.50;2.30;;;;;;;23.81;50.83;98796.28;10434064;28;20056;-75
2023/09/21 11:00:16;;;;;;;2.35;2.15;;;;;;;23.92;50.86;98805.50;10437466;28;20044;-76
2023/09/21 11:05:21;;;;;;;3.25;1.80;;;;;;;23.96;49.84;98801.97;10431454;28;20049;-76
2023/09/21 11:10:25;;;;;;;2.28;1.90;;;;;;;23.84;51.04;98802.06;10432392;28;20135;-75
2023/09/21 11:15:30;;;;;;;3.38;1.63;;;;;;;24.63;48.99;98803.78;10434941;28;20052;-75
2023/09/21 11:20:37;;;;;;;2.90;1.67;;;;;;;24.57;49.18;98796.56;10431921;28;20532;-75
2023/09/21 11:25:40;;;;;;;4.03;1.95;;;;;;;23.62;50.86;98806.63;10430717;28;20500;-76
2023/09/21 11:30:46;;;;;;;7.25;2.42;;;;;;;23.12;52.57;98793.66;10435553;28;20057;-75
2023/09/21 11:35:51;;;;;;;4.15;2.20;;;;;;;22.67;54.04;98789.72;10444308;28;20048;-74
2023/09/21 11:40:54;;;;;;;3.58;2.08;;;;;;;22.77;54.04;98778.19;10446920;28;20176;-75
2023/09/21 11:45:57;;;;;;;5.18;2.10;;;;;;;22.98;54.02;98777.50;10449770;28;20048;-74
2023/09/21 11:51:04;;;;;;;3.38;2.50;;;;;;;23.10;53.28;98769.22;10442073;28;20055;-74
2023/09/21 11:56:08;;;;;;;6.32;2.58;;;;;;;23.28;53.43;98773.69;10439020;28;20066;-74
2023/09/21 12:01:19;;;;;;;4.43;2.25;;;;;;;23.54;52.96;98763.19;10446340;28;20067;-74
2023/09/21 12:06:27;;;;;;;3.25;2.22;;;;;;;23.66;52.58;98758.44;10442415;28;20051;-74
2023/09/21 12:11:30;;;;;;;4.00;2.42;;;;;;;24.00;52.29;98747.50;10440691;28;20149;-74
2023/09/21 12:16:33;;;;;;;2.63;2.03;;;;;;;24.12;52.01;98759.16;10446169;28;20057;-74
2023/09/21 12:21:38;;;;;;;2.60;1.80;;;;;;;23.86;51.56;98744.25;10439016;28;20048;-74
2023/09/21 12:26:41;;;;;;;4.05;1.90;;;;;;;23.86;52.38;98742.34;10442687;28;20396;-74
2023/09/21 12:31:45;;;;;;;3.53;2.10;;;;;;;23.48;53.22;98732.13;10444595;28;20154;-74
2023/09/21 12:37:05;;;;;;;4.97;2.10;;;;;;;23.45;53.08;98727.16;10447376;28;20483;-75
2023/09/21 12:42:08;;;;;;;3.75;1.63;;;;;;;23.72;53.03;98731.94;10443843;28;20048;-74
2023/09/21 12:47:11;;;;;;;5.53;2.20;;;;;;;23.81;52.23;98717.59;10443579;28;20051;-75
2023/09/21 12:52:16;;;;;;;6.55;2.30;;;;;;;23.58;53.23;98723.22;10446911;28;20102;-75
2023/09/21 12:57:19;;;;;;;4.07;2.10;;;;;;;23.46;54.06;98712.34;10443031;28;20049;-74
2023/09/21 13:02:25;;;;;;;2.33;1.80;;;;;;;23.52;54.41;98716.00;10454193;28;20045;-75
2023/09/21 13:07:30;;;;;;;3.20;1.80;;;;;;;23.47;54.29;98716.75;10450860;28;20041;-75
2023/09/21 13:12:33;;;;;;;3.97;2.50;;;;;;;23.52;54.05;98708.63;10449349;28;20721;-74
2023/09/21 13:17:36;;;;;;;6.45;2.28;;;;;;;23.63;54.18;98698.66;10452066;28;20045;-75
2023/09/21 13:22:41;;;;;;;4.97;2.13;;;;;;;23.59;53.72;98695.59;10450880;28;20048;-75
2023/09/21 13:27:44;;;;;;;6.45;2.08;;;;;;;24.04;52.95;98677.34;10447423;28;20504;-75
2023/09/21 13:32:47;;;;;;;7.07;2.53;;;;;;;24.63;51.58;98673.94;10445343;28;20049;-75
2023/09/21 13:37:51;;;;;;;5.22;3.45;;;;;;;25.21;50.85;98664.13;10445158;28;20053;-75
2023/09/21 13:42:54;;;;;;;3.45;2.40;;;;;;;25.85;49.60;98660.44;10446699;28;20056;-74
2023/09/21 13:47:57;;;;;;;2.80;2.17;;;;;;;26.48;48.69;98654.97;10448099;28;20044;-76
2023/09/21 13:53:02;;;;;;;3.20;2.28;;;;;;;30.80;39.45;98642.09;10439506;28;20049;-75
2023/09/21 13:58:06;;;;;;;2.47;1.80;;;;;;;31.27;38.47;98643.88;10438535;28;20055;-75
2023/09/21 14:03:11;;;;;;;3.83;2.13;;;;;;;31.47;37.74;98628.81;10439310;28;20060;-76
2023/09/21 14:08:22;;;;;;;3.88;1.98;;;;;;;30.41;38.77;98610.75;10440839;28;20106;-75
2023/09/21 14:13:25;;;;;;;3.67;1.92;;;;;;;30.15;40.13;98612.25;10445477;28;21226;-74
2023/09/21 14:18:28;;;;;;;3.60;1.90;;;;;;;28.89;41.05;98597.41;10447715;28;20071;-74
2023/09/21 14:23:32;;;;;;;6.78;2.00;;;;;;;28.17;42.29;98599.78;11646209;22;20055;-76
2023/09/21 14:28:35;;;;;;;13.38;2.15;;;;;;;27.08;44.97;98589.25;10524259;28;20044;-75
2023/09/21 14:33:38;;;;;;;2.45;1.70;;;;;;;26.11;46.85;98580.78;10515202;28;20060;-76
2023/09/21 14:38:43;;;;;;;2.95;1.80;;;;;;;26.24;46.78;98559.13;10521595;28;20048;-76
2023/09/21 14:43:47;;;;;;;1.90;1.70;;;;;;;25.26;48.74;98559.75;10522530;28;20123;-77
2023/09/21 14:48:50;;;;;;;3.08;1.80;;;;;;;24.37;50.50;98549.34;10517340;28;20056;-76
2023/09/21 14:53:54;;;;;;;4.50;2.13;;;;;;;24.51;50.86;98545.13;10509614;28;20513;-76
2023/09/21 14:58:57;;;;;;;3.40;2.05;;;;;;;24.32;51.13;98542.72;10517322;28;20098;-76
2023/09/21 15:04:01;;;;;;;4.07;2.50;;;;;;;24.34;51.71;98547.13;10517233;28;20048;-76
2023/09/21 15:09:06;;;;;;;5.50;2.28;;;;;;;23.77;53.18;98543.75;10513919;28;20043;-76
2023/09/21 15:14:09;;;;;;;4.22;2.33;;;;;;;23.62;54.80;98544.34;10508439;28;20063;-76
2023/09/21 15:19:12;;;;;;;2.92;2.25;;;;;;;23.32;55.57;98539.31;10515059;28;20051;-76
2023/09/21 15:24:16;;;;;;;3.50;2.08;;;;;;;22.97;55.18;98551.34;10515109;28;20044;-76
2023/09/21 15:29:19;;;;;;;4.18;2.50;;;;;;;22.87;56.26;98532.00;10524456;28;20105;-76
2023/09/21 15:34:23;;;;;;;3.67;2.10;;;;;;;22.49;56.84;98522.66;10521380;28;20047;-76
2023/09/21 15:39:27;;;;;;;3.42;2.35;;;;;;;22.52;57.22;98515.88;10520859;28;20548;-77
2023/09/21 15:44:31;;;;;;;4.60;2.65;;;;;;;22.46;57.97;98509.47;10522453;28;20332;-76
2023/09/21 15:49:34;;;;;;;6.43;1.77;;;;;;;22.25;57.86;98512.91;10519196;28;20063;-76
2023/09/21 15:54:38;;;;;;;4.78;2.10;;;;;;;22.31;57.84;98493.59;10479657;28;20094;-75
2023/09/21 15:59:41;;;;;;;3.67;2.17;;;;;;;22.13;58.04;98490.25;10485995;28;20480;-76
2023/09/21 16:04:44;;;;;;;2.67;1.73;;;;;;;21.86;58.77;98488.94;10484354;28;20048;-75
2023/09/21 16:09:51;;;;;;;2.08;1.77;;;;;;;21.86;59.13;98485.41;10484674;28;20052;-75
2023/09/21 16:14:54;;;;;;;2.17;1.50;;;;;;;21.81;59.40;98467.00;10478538;28;20060;-75
2023/09/21 16:19:57;;;;;;;3.55;2.17;;;;;;;21.61;60.52;98472.00;10477989;28;20053;-76
2023/09/21 16:25:01;;;;;;;1.65;1.55;;;;;;;21.28;61.38;98454.41;10474014;28;20053;-75
2023/09/21 16:30:05;;;;;;;3.97;1.85;;;;;;;21.33;60.97;98476.34;10470900;28;20194;-76
2023/09/21 16:35:09;;;;;;;2.10;1.90;;;;;;;21.12;61.27;98477.00;10476700;28;20083;-76
2023/09/21 16:40:14;;;;;;;3.30;2.53;;;;;;;20.99;61.20;98478.88;10472970;28;20052;-75
2023/09/21 16:45:21;;;;;;;3.08;2.20;;;;;;;21.12;60.33;98477.00;10480142;28;21887;-75
2023/09/21 16:50:24;;;;;;;2.78;2.05;;;;;;;21.26;59.98;98474.84;10476700;28;20145;-75
2023/09/21 16:55:28;;;;;;;2.35;2.13;;;;;;;21.19;59.93;98489.44;10481904;28;20695;-75
2023/09/21 17:00:31;;;;;;;4.00;2.05;;;;;;;21.32;59.06;98482.91;10479798;28;20055;-77
2023/09/21 17:05:34;;;;;;;4.00;2.00;;;;;;;21.25;59.13;98484.91;10480930;28;20071;-77
2023/09/21 17:10:38;;;;;;;6.78;2.45;;;;;;;21.09;59.62;98477.47;10480638;28;20052;-76
2023/09/21 17:15:41;;;;;;;4.40;2.42;;;;;;;21.05;60.09;98474.41;10476972;28;20128;-77
2023/09/21 17:20:45;;;;;;;2.10;1.90;;;;;;;20.94;60.77;98470.56;10487570;28;20047;-76
2023/09/21 17:25:49;;;;;;;2.20;1.50;;;;;;;20.80;61.39;98469.16;10470487;28;20048;-77
2023/09/21 17:30:52;;;;;;;4.25;1.80;;;;;;;20.67;61.81;98467.50;10481686;28;20056;-75
2023/09/21 17:35:55;;;;;;;1.80;1.70;;;;;;;20.71;61.66;98460.50;10482748;28;20600;-78
2023/09/21 17:41:01;;;;;;;1.92;1.67;;;;;;;20.70;62.02;98463.47;10482360;28;20119;-76
2023/09/21 17:46:04;;;;;;;3.53;1.80;;;;;;;20.66;62.35;98463.13;10479165;28;20059;-75
2023/09/21 17:51:07;;;;;;;3.05;2.10;;;;;;;20.60;62.73;98463.22;10478445;28;21607;-75
2023/09/21 17:56:11;;;;;;;5.07;2.30;;;;;;;20.55;62.96;98453.84;10486925;28;20104;-75
2023/09/21 18:01:14;;;;;;;2.15;1.80;;;;;;;20.50;63.36;98461.09;10489396;28;20072;-76
2023/09/21 18:06:17;;;;;;;2.70;1.92;;;;;;;20.61;62.74;98487.53;10490472;28;20044;-76
2023/09/21 18:11:23;;;;;;;5.55;4.03;;;;;;;19.63;66.41;98524.97;10492343;28;20553;-76
2023/09/21 18:16:26;;;;;;;1.85;1.60;;;;;;;19.33;66.98;98554.00;10486307;28;20051;-76
2023/09/21 18:21:30;;;;;;;4.93;2.10;;;;;;;19.05;66.58;98547.16;10484470;28;20052;-76
2023/09/21 18:26:34;;;;;;;3.17;1.40;;;;;;;18.98;66.92;98544.50;10480785;28;21240;-75
2023/09/21 18:31:40;;;;;;;5.72;1.30;;;;;;;18.92;65.37;98537.22;10470949;28;21265;-75
2023/09/21 18:36:43;;;;;;;1.65;1.05;;;;;;;18.84;65.34;98540.25;10474009;28;20919;-75
2023/09/21 18:41:47;;;;;;;3.53;1.00;;;;;;;18.39;67.39;98555.84;10451646;28;20059;-75
2023/09/21 18:46:50;;;;;;;1.58;1.35;;;;;;;18.55;65.96;98563.44;10465907;28;20193;-76
2023/09/21 18:51:53;;;;;;;1.08;0.98;;;;;;;18.67;65.74;98577.16;10462410;28;20054;-76
2023/09/21 18:56:57;;;;;;;1.45;1.10;;;;;;;18.34;66.50;98578.22;10487435;28;20430;-76
2023/09/21 19:02:09;;;;;;;1.05;0.95;;;;;;;18.78;65.81;98543.84;10482684;28;20508;-75
2023/09/21 19:07:13;;;;;;;4.15;1.17;;;;;;;17.48;76.82;98561.25;10490576;28;20691;-77
2023/09/21 19:12:17;;;;;;;2.72;1.25;;;;;;;16.70;87.78;98557.56;10496698;28;20051;-75
2023/09/21 19:17:20;;;;;;;4.60;1.50;;;;;;;16.33;91.02;98557.13;10487935;28;20395;-76
2023/09/21 19:22:23;;;;;;;5.78;1.83;;;;;;;15.65;94.88;98573.34;10486267;28;20036;-77
2023/09/21 19:27:27;;;;;;;3.03;1.88;;;;;;;15.46;97.59;98589.25;10483001;28;20445;-77
2023/09/21 19:32:31;;;;;;;2.70;2.03;;;;;;;15.54;99.42;98577.44;10478355;28;20097;-78
2023/09/21 19:37:34;;;;;;;4.57;1.90;;;;;;;15.58;98.96;98569.78;10483859;28;20123;-78
2023/09/21 19:42:40;;;;;;;2.53;1.90;;;;;;;15.52;99.51;98578.66;10485275;28;20048;-77
2023/09/21 19:47:43;;;;;;;2.13;1.90;;;;;;;15.43;99.68;98596.94;10476036;28;21191;-78
2023/09/21 19:52:47;;;;;;;6.53;2.50;;;;;;;15.30;100.00;98597.66;10478260;28;20140;-77
2023/09/21 19:57:51;;;;;;;4.10;1.88;;;;;;;15.01;100.00;98599.56;10490767;28;20094;-76
2023/09/21 20:02:55;;;;;;;4.05;2.30;;;;;;;15.26;100.00;98599.94;10479703;28;20071;-76
2023/09/21 20:07:58;;;;;;;5.63;2.22;;;;;;;15.19;100.00;98596.38;10469340;28;20051;-77
2023/09/21 20:13:03;;;;;;;3.63;2.70;;;;;;;15.18;100.00;98589.25;10487084;28;20055;-77
2023/09/21 20:18:06;;;;;;;3.22;2.13;;;;;;;15.22;100.00;98571.63;10501629;28;20123;-76
2023/09/21 20:23:09;;;;;;;3.83;2.80;;;;;;;15.30;100.00;98578.72;10462176;28;20055;-76
2023/09/21 20:28:14;;;;;;;3.92;2.65;;;;;;;15.24;100.00;98582.22;10485965;28;20059;-76
2023/09/21 20:33:17;;;;;;;3.22;2.50;;;;;;;15.20;100.00;98597.19;10475664;28;20560;-76
2023/09/21 20:38:20;;;;;;;3.90;2.85;;;;;;;15.23;100.00;98583.28;10477950;28;21274;-76
2023/09/21 20:43:24;;;;;;;5.43;3.15;;;;;;;15.06;100.00;98563.81;10483860;28;20049;-77
2023/09/21 20:48:28;;;;;;;6.40;3.42;;;;;;;15.03;100.00;98581.28;10491077;28;20496;-79
2023/09/21 20:53:31;;;;;;;4.32;3.28;;;;;;;15.02;100.00;98593.09;10496653;28;20503;-77
2023/09/21 20:58:36;;;;;;;3.63;3.08;;;;;;;15.10;100.00;98616.44;10478207;28;20048;-76
2023/09/21 21:03:39;;;;;;;4.22;3.17;;;;;;;15.15;100.00;98602.34;10502898;28;20068;-77
2023/09/21 21:08:42;;;;;;;6.68;3.63;;;;;;;14.99;100.00;98615.13;10501983;28;20044;-77
2023/09/21 21:13:46;;;;;;;4.70;3.42;;;;;;;14.87;100.00;98619.41;10514870;28;20427;-77
2023/09/21 21:18:49;;;;;;;4.22;3.47;;;;;;;15.01;100.00;98615.78;10507604;28;20075;-76
2023/09/21 21:23:52;;;;;;;5.82;3.25;;;;;;;14.95;100.00;98637.34;10477282;28;20491;-77
2023/09/21 21:28:56;;;;;;;5.45;2.85;;;;;;;14.82;100.00;98619.97;10485495;28;20063;-75
2023/09/21 21:33:59;;;;;;;4.03;3.38;;;;;;;14.91;100.00;98617.13;10485642;28;20082;-77
2023/09/21 21:39:02;;;;;;;3.00;2.80;;;;;;;14.96;100.00;98620.09;10491610;28;20059;-76
2023/09/21 21:44:07;;;;;;;4.50;3.50;;;;;;;14.86;100.00;98627.69;10488237;28;20481;-76
2023/09/21 21:49:10;;;;;;;7.72;4.30;;;;;;;14.74;100.00;98630.09;10480716;28;20047;-76
2023/09/21 21:54:13;;;;;;;6.07;4.53;;;;;;;14.63;100.00;98630.63;10505991;28;20091;-77
2023/09/21 21:59:17;;;;;;;4.75;3.47;;;;;;;14.44;100.00;98635.63;10513598;28;20265;-76
2023/09/21 22:04:20;;;;;;;3.70;3.22;;;;;;;14.52;100.00;98627.38;10509717;28;20055;-78
2023/09/21 22:09:23;;;;;;;5.60;3.30;;;;;;;14.28;100.00;98619.63;10538421;28;20055;-76
2023/09/21 22:14:28;;;;;;;6.88;4.35;;;;;;;14.38;100.00;98639.06;10508087;28;20150;-76
2023/09/21 22:19:32;;;;;;;4.35;3.95;;;;;;;14.54;100.00;98635.31;10477258;28;20048;-76
2023/09/21 22:24:34;;;;;;;5.50;3.33;;;;;;;14.23;100.00;98643.66;10478167;28;20052;-76
2023/09/21 22:29:39;;;;;;;5.10;3.42;;;;;;;14.31;100.00;98630.03;10483357;28;20112;-77
2023/09/21 22:34:42;;;;;;;3.30;2.88;;;;;;;14.46;100.00;98636.28;10485390;28;20062;-76
2023/09/21 22:39:45;;;;;;;2.70;2.50;;;;;;;14.28;100.00;98636.66;10495325;28;20067;-76
2023/09/21 22:44:49;;;;;;;4.20;2.58;;;;;;;14.47;100.00;98635.22;10476159;28;20059;-76
2023/09/21 22:49:52;;;;;;;4.50;2.20;;;;;;;14.45;100.00;98647.25;10484090;28;20079;-76
2023/09/21 22:54:55;;;;;;;2.75;2.50;;;;;;;14.51;100.00;98641.09;10488837;28;20048;-77
2023/09/21 23:00:00;;;;;;;3.58;2.55;;;;;;;14.42;100.00;98658.44;10507638;28;20056;-77
2023/09/21 23:05:05;;;;;;;2.95;2.72;;;;;;;14.47;99.90;98677.63;10479946;28;20044;-77
2023/09/21 23:10:11;;;;;;;5.10;3.00;;;;;;;14.46;100.00;98678.66;10497228;28;20419;-77
2023/09/21 23:15:17;;;;;;;4.25;3.05;;;;;;;14.36;100.00;98687.84;10477539;28;20055;-77
2023/09/21 23:20:22;;;;;;;5.25;2.90;;;;;;;14.40;99.39;98684.78;10475794;28;20610;-76
2023/09/21 23:25:26;;;;;;;3.47;2.70;;;;;;;14.23;99.79;98687.69;10483576;28;20082;-76
2023/09/21 23:30:30;;;;;;;4.78;2.85;;;;;;;14.25;99.13;98707.25;10491605;28;20134;-77
2023/09/21 23:35:34;;;;;;;6.13;2.63;;;;;;;14.13;99.00;98696.09;10484073;28;20048;-76